sensor_id;sensor_type;location;lat;lon;timestamp;temperature;humidity
53844;DHT22;39744;53.314;5.710;2023-09-08T00:02:09;17.80;99.90
53844;DHT22;39744;53.314;5.710;2023-09-08T00:04:35;17.80;99.90
53844;DHT22;39744;53.314;5.710;2023-09-08T00:07:01;17.80;99.90
53844;DHT22;39744;53.314;5.710;2023-09-08T00:09:27;17.80;99.90
53844;DHT22;39744;53.314;5.710;2023-09-08T00:11:53;17.70;99.90
53844;DHT22;39744;53.314;5.710;2023-09-08T00:14:20;17.70;99.90
53844;DHT22;39744;53.314;5.710;2023-09-08T00:16:47;17.60;99.90
53844;DHT22;39744;53.314;5.710;2023-09-08T00:19:14;17.60;99.90
53844;DHT22;39744;53.314;5.710;2023-09-08T00:21:40;17.60;99.90
53844;DHT22;39744;53.314;5.710;2023-09-08T00:24:08;17.50;99.90
53844;DHT22;39744;53.314;5.710;2023-09-08T00:26:34;17.50;99.90
53844;DHT22;39744;53.314;5.710;2023-09-08T00:29:00;17.50;99.90
53844;DHT22;39744;53.314;5.710;2023-09-08T00:31:25;17.40;99.90
53844;DHT22;39744;53.314;5.710;2023-09-08T00:33:51;17.50;99.90
53844;DHT22;39744;53.314;5.710;2023-09-08T00:36:17;17.30;99.90
53844;DHT22;39744;53.314;5.710;2023-09-08T00:38:44;17.30;99.90
53844;DHT22;39744;53.314;5.710;2023-09-08T00:41:09;17.30;99.90
53844;DHT22;39744;53.314;5.710;2023-09-08T00:43:36;17.20;99.90
53844;DHT22;39744;53.314;5.710;2023-09-08T00:46:03;17.20;99.90
53844;DHT22;39744;53.314;5.710;2023-09-08T00:48:29;17.10;99.90
53844;DHT22;39744;53.314;5.710;2023-09-08T00:50:56;17.10;99.90
53844;DHT22;39744;53.314;5.710;2023-09-08T00:53:22;17.00;99.90
53844;DHT22;39744;53.314;5.710;2023-09-08T00:55:48;17.00;99.90
53844;DHT22;39744;53.314;5.710;2023-09-08T00:58:14;16.90;99.90
53844;DHT22;39744;53.314;5.710;2023-09-08T01:00:40;16.90;99.90
53844;DHT22;39744;53.314;5.710;2023-09-08T01:03:06;16.90;99.90
53844;DHT22;39744;53.314;5.710;2023-09-08T01:05:32;16.90;99.90
53844;DHT22;39744;53.314;5.710;2023-09-08T01:08:00;16.80;99.90
53844;DHT22;39744;53.314;5.710;2023-09-08T01:10:31;16.80;99.90
53844;DHT22;39744;53.314;5.710;2023-09-08T01:12:57;16.80;99.90
53844;DHT22;39744;53.314;5.710;2023-09-08T01:15:23;16.80;99.90
53844;DHT22;39744;53.314;5.710;2023-09-08T01:17:49;16.70;99.90
53844;DHT22;39744;53.314;5.710;2023-09-08T01:20:22;16.70;99.90
53844;DHT22;39744;53.314;5.710;2023-09-08T01:25:27;16.70;99.90
53844;DHT22;39744;53.314;5.710;2023-09-08T01:27:54;16.70;99.90
53844;DHT22;39744;53.314;5.710;2023-09-08T01:30:22;16.70;99.90
53844;DHT22;39744;53.314;5.710;2023-09-08T01:32:49;16.70;99.90
53844;DHT22;39744;53.314;5.710;2023-09-08T01:35:15;16.70;99.90
53844;DHT22;39744;53.314;5.710;2023-09-08T01:37:44;16.70;99.90
53844;DHT22;39744;53.314;5.710;2023-09-08T01:40:11;16.70;99.90
53844;DHT22;39744;53.314;5.710;2023-09-08T01:42:38;16.70;99.90
53844;DHT22;39744;53.314;5.710;2023-09-08T01:45:04;16.70;99.90
53844;DHT22;39744;53.314;5.710;2023-09-08T01:47:30;16.60;99.90
53844;DHT22;39744;53.314;5.710;2023-09-08T01:49:56;16.70;99.90
53844;DHT22;39744;53.314;5.710;2023-09-08T01:52:22;16.70;99.90
53844;DHT22;39744;53.314;5.710;2023-09-08T01:54:48;16.70;99.90
53844;DHT22;39744;53.314;5.710;2023-09-08T01:57:13;16.70;99.90
53844;DHT22;39744;53.314;5.710;2023-09-08T01:59:39;16.60;99.90
53844;DHT22;39744;53.314;5.710;2023-09-08T02:02:05;16.60;99.90
53844;DHT22;39744;53.314;5.710;2023-09-08T02:04:33;16.60;99.90
53844;DHT22;39744;53.314;5.710;2023-09-08T02:06:58;16.60;99.90
53844;DHT22;39744;53.314;5.710;2023-09-08T02:09:34;16.60;99.90
53844;DHT22;39744;53.314;5.710;2023-09-08T02:12:01;16.50;99.90
53844;DHT22;39744;53.314;5.710;2023-09-08T02:14:27;16.60;99.90
53844;DHT22;39744;53.314;5.710;2023-09-08T02:16:56;16.50;99.90
53844;DHT22;39744;53.314;5.710;2023-09-08T02:19:22;16.50;99.90
53844;DHT22;39744;53.314;5.710;2023-09-08T02:21:48;16.50;99.90
53844;DHT22;39744;53.314;5.710;2023-09-08T02:24:14;16.60;99.90
53844;DHT22;39744;53.314;5.710;2023-09-08T02:26:40;16.50;99.90
53844;DHT22;39744;53.314;5.710;2023-09-08T02:29:06;16.50;99.90
53844;DHT22;39744;53.314;5.710;2023-09-08T02:31:33;16.50;99.90
53844;DHT22;39744;53.314;5.710;2023-09-08T02:33:59;16.50;99.90
53844;DHT22;39744;53.314;5.710;2023-09-08T02:36:24;16.40;99.90
53844;DHT22;39744;53.314;5.710;2023-09-08T02:38:54;16.30;99.90
53844;DHT22;39744;53.314;5.710;2023-09-08T02:41:20;16.30;99.90
53844;DHT22;39744;53.314;5.710;2023-09-08T02:43:46;16.30;99.90
53844;DHT22;39744;53.314;5.710;2023-09-08T02:46:12;16.30;99.90
53844;DHT22;39744;53.314;5.710;2023-09-08T02:48:38;16.30;99.90
53844;DHT22;39744;53.314;5.710;2023-09-08T02:51:04;16.30;99.90
53844;DHT22;39744;53.314;5.710;2023-09-08T02:53:30;16.20;99.90
53844;DHT22;39744;53.314;5.710;2023-09-08T02:55:57;16.20;99.90
53844;DHT22;39744;53.314;5.710;2023-09-08T02:58:23;16.20;99.90
53844;DHT22;39744;53.314;5.710;2023-09-08T03:00:49;16.20;99.90
53844;DHT22;39744;53.314;5.710;2023-09-08T03:03:15;16.20;99.90
53844;DHT22;39744;53.314;5.710;2023-09-08T03:05:43;16.10;99.90
53844;DHT22;39744;53.314;5.710;2023-09-08T03:08:09;16.10;99.90
53844;DHT22;39744;53.314;5.710;2023-09-08T03:10:34;16.10;99.90
53844;DHT22;39744;53.314;5.710;2023-09-08T03:13:00;16.10;99.90
53844;DHT22;39744;53.314;5.710;2023-09-08T03:15:26;16.00;99.90
53844;DHT22;39744;53.314;5.710;2023-09-08T03:17:57;16.00;99.90
53844;DHT22;39744;53.314;5.710;2023-09-08T03:20:26;15.90;99.90
53844;DHT22;39744;53.314;5.710;2023-09-08T03:22:54;15.90;99.90
53844;DHT22;39744;53.314;5.710;2023-09-08T03:25:19;15.90;99.90
53844;DHT22;39744;53.314;5.710;2023-09-08T03:27:45;15.80;99.90
53844;DHT22;39744;53.314;5.710;2023-09-08T03:30:11;15.80;99.90
53844;DHT22;39744;53.314;5.710;2023-09-08T03:32:37;15.80;99.90
53844;DHT22;39744;53.314;5.710;2023-09-08T03:35:04;15.70;99.90
53844;DHT22;39744;53.314;5.710;2023-09-08T03:37:33;15.70;99.90
53844;DHT22;39744;53.314;5.710;2023-09-08T03:39:59;15.70;99.90
53844;DHT22;39744;53.314;5.710;2023-09-08T03:42:24;15.70;99.90
53844;DHT22;39744;53.314;5.710;2023-09-08T03:44:50;15.60;99.90
53844;DHT22;39744;53.314;5.710;2023-09-08T03:47:15;15.60;99.90
53844;DHT22;39744;53.314;5.710;2023-09-08T03:49:41;15.70;99.90
53844;DHT22;39744;53.314;5.710;2023-09-08T03:52:07;15.70;99.90
53844;DHT22;39744;53.314;5.710;2023-09-08T03:54:33;15.70;99.90
53844;DHT22;39744;53.314;5.710;2023-09-08T03:56:59;15.70;99.90
53844;DHT22;39744;53.314;5.710;2023-09-08T03:59:24;15.70;99.90
53844;DHT22;39744;53.314;5.710;2023-09-08T04:01:50;15.70;99.90
53844;DHT22;39744;53.314;5.710;2023-09-08T04:04:16;15.80;99.90
53844;DHT22;39744;53.314;5.710;2023-09-08T04:06:44;15.70;99.90
53844;DHT22;39744;53.314;5.710;2023-09-08T04:09:09;15.60;99.90
53844;DHT22;39744;53.314;5.710;2023-09-08T04:11:35;15.70;99.90
53844;DHT22;39744;53.314;5.710;2023-09-08T04:14:01;15.70;99.90
53844;DHT22;39744;53.314;5.710;2023-09-08T04:16:26;15.70;99.90
53844;DHT22;39744;53.314;5.710;2023-09-08T04:18:52;15.50;99.90
53844;DHT22;39744;53.314;5.710;2023-09-08T04:21:18;15.60;99.90
53844;DHT22;39744;53.314;5.710;2023-09-08T04:23:44;15.00;99.90
53844;DHT22;39744;53.314;5.710;2023-09-08T04:26:09;15.70;99.90
53844;DHT22;39744;53.314;5.710;2023-09-08T04:28:35;15.40;99.90
53844;DHT22;39744;53.314;5.710;2023-09-08T04:31:01;15.40;99.90
53844;DHT22;39744;53.314;5.710;2023-09-08T04:33:27;15.30;99.90
53844;DHT22;39744;53.314;5.710;2023-09-08T04:35:54;15.30;99.90
53844;DHT22;39744;53.314;5.710;2023-09-08T04:38:21;15.30;99.90
53844;DHT22;39744;53.314;5.710;2023-09-08T04:40:46;15.30;99.90
53844;DHT22;39744;53.314;5.710;2023-09-08T04:43:12;15.30;99.90
53844;DHT22;39744;53.314;5.710;2023-09-08T04:45:37;15.30;99.90
53844;DHT22;39744;53.314;5.710;2023-09-08T04:48:04;15.30;99.90
53844;DHT22;39744;53.314;5.710;2023-09-08T04:50:30;15.30;99.90
53844;DHT22;39744;53.314;5.710;2023-09-08T04:52:56;15.30;99.90
53844;DHT22;39744;53.314;5.710;2023-09-08T04:55:21;15.40;99.90
53844;DHT22;39744;53.314;5.710;2023-09-08T04:57:47;15.30;99.90
53844;DHT22;39744;53.314;5.710;2023-09-08T05:00:13;15.30;99.90
53844;DHT22;39744;53.314;5.710;2023-09-08T05:02:39;15.30;99.90
53844;DHT22;39744;53.314;5.710;2023-09-08T05:05:05;15.20;99.90
53844;DHT22;39744;53.314;5.710;2023-09-08T05:07:31;15.20;99.90
53844;DHT22;39744;53.314;5.710;2023-09-08T05:09:57;15.20;99.90
53844;DHT22;39744;53.314;5.710;2023-09-08T05:12:22;15.10;99.90
53844;DHT22;39744;53.314;5.710;2023-09-08T05:14:48;15.10;99.90
53844;DHT22;39744;53.314;5.710;2023-09-08T05:17:14;15.10;99.90
53844;DHT22;39744;53.314;5.710;2023-09-08T05:19:40;15.10;99.90
53844;DHT22;39744;53.314;5.710;2023-09-08T05:22:05;15.10;99.90
53844;DHT22;39744;53.314;5.710;2023-09-08T05:24:32;15.10;99.90
53844;DHT22;39744;53.314;5.710;2023-09-08T05:26:58;15.10;99.90
53844;DHT22;39744;53.314;5.710;2023-09-08T05:29:24;15.20;99.90
53844;DHT22;39744;53.314;5.710;2023-09-08T05:31:49;15.20;99.90
53844;DHT22;39744;53.314;5.710;2023-09-08T05:34:15;15.20;99.90
53844;DHT22;39744;53.314;5.710;2023-09-08T05:36:41;15.30;99.90
53844;DHT22;39744;53.314;5.710;2023-09-08T05:39:07;15.30;99.90
53844;DHT22;39744;53.314;5.710;2023-09-08T05:41:33;15.40;99.90
53844;DHT22;39744;53.314;5.710;2023-09-08T05:44:00;15.40;99.90
53844;DHT22;39744;53.314;5.710;2023-09-08T05:46:25;15.40;99.90
53844;DHT22;39744;53.314;5.710;2023-09-08T05:48:51;15.40;99.90
53844;DHT22;39744;53.314;5.710;2023-09-08T05:51:16;15.50;99.90
53844;DHT22;39744;53.314;5.710;2023-09-08T05:53:42;15.50;99.90
53844;DHT22;39744;53.314;5.710;2023-09-08T05:56:08;15.60;99.90
53844;DHT22;39744;53.314;5.710;2023-09-08T05:58:34;15.70;99.90
53844;DHT22;39744;53.314;5.710;2023-09-08T06:01:01;15.70;99.90
53844;DHT22;39744;53.314;5.710;2023-09-08T06:03:27;15.80;99.90
53844;DHT22;39744;53.314;5.710;2023-09-08T06:05:53;15.90;99.90
53844;DHT22;39744;53.314;5.710;2023-09-08T06:08:19;16.00;99.90
53844;DHT22;39744;53.314;5.710;2023-09-08T06:10:44;16.10;99.90
53844;DHT22;39744;53.314;5.710;2023-09-08T06:13:10;16.10;99.90
53844;DHT22;39744;53.314;5.710;2023-09-08T06:15:36;16.20;99.90
53844;DHT22;39744;53.314;5.710;2023-09-08T06:18:02;16.40;99.90
53844;DHT22;39744;53.314;5.710;2023-09-08T06:20:28;16.40;99.90
53844;DHT22;39744;53.314;5.710;2023-09-08T06:22:53;16.60;99.90
53844;DHT22;39744;53.314;5.710;2023-09-08T06:25:19;16.70;99.90
53844;DHT22;39744;53.314;5.710;2023-09-08T06:27:45;16.70;99.90
53844;DHT22;39744;53.314;5.710;2023-09-08T06:30:11;16.90;99.90
53844;DHT22;39744;53.314;5.710;2023-09-08T06:32:39;17.00;99.90
53844;DHT22;39744;53.314;5.710;2023-09-08T06:35:04;17.10;99.90
53844;DHT22;39744;53.314;5.710;2023-09-08T06:37:38;17.20;99.90
53844;DHT22;39744;53.314;5.710;2023-09-08T06:40:05;17.30;99.90
53844;DHT22;39744;53.314;5.710;2023-09-08T06:42:31;17.40;99.90
53844;DHT22;39744;53.314;5.710;2023-09-08T06:44:56;17.50;99.90
53844;DHT22;39744;53.314;5.710;2023-09-08T06:47:22;17.60;99.90
53844;DHT22;39744;53.314;5.710;2023-09-08T06:49:48;17.70;99.90
53844;DHT22;39744;53.314;5.710;2023-09-08T06:52:14;17.80;99.90
53844;DHT22;39744;53.314;5.710;2023-09-08T06:54:39;17.90;99.90
53844;DHT22;39744;53.314;5.710;2023-09-08T06:57:05;18.00;99.90
53844;DHT22;39744;53.314;5.710;2023-09-08T06:59:30;18.10;99.90
53844;DHT22;39744;53.314;5.710;2023-09-08T07:01:56;18.20;99.90
53844;DHT22;39744;53.314;5.710;2023-09-08T07:04:22;18.40;99.90
53844;DHT22;39744;53.314;5.710;2023-09-08T07:06:48;18.50;99.90
53844;DHT22;39744;53.314;5.710;2023-09-08T07:09:15;18.60;99.90
53844;DHT22;39744;53.314;5.710;2023-09-08T07:11:41;18.70;99.90
53844;DHT22;39744;53.314;5.710;2023-09-08T07:14:07;18.80;99.90
53844;DHT22;39744;53.314;5.710;2023-09-08T07:16:32;18.90;99.90
53844;DHT22;39744;53.314;5.710;2023-09-08T07:18:58;19.10;99.90
53844;DHT22;39744;53.314;5.710;2023-09-08T07:21:26;19.20;99.90
53844;DHT22;39744;53.314;5.710;2023-09-08T07:23:52;19.30;99.90
53844;DHT22;39744;53.314;5.710;2023-09-08T07:26:19;19.50;99.90
53844;DHT22;39744;53.314;5.710;2023-09-08T07:28:45;19.60;99.90
53844;DHT22;39744;53.314;5.710;2023-09-08T07:31:12;19.70;99.90
53844;DHT22;39744;53.314;5.710;2023-09-08T07:33:38;19.80;99.90
53844;DHT22;39744;53.314;5.710;2023-09-08T07:36:05;19.90;99.90
53844;DHT22;39744;53.314;5.710;2023-09-08T07:38:31;20.10;99.90
53844;DHT22;39744;53.314;5.710;2023-09-08T07:40:57;20.20;99.90
53844;DHT22;39744;53.314;5.710;2023-09-08T07:43:22;20.30;99.90
53844;DHT22;39744;53.314;5.710;2023-09-08T07:45:48;20.40;99.90
53844;DHT22;39744;53.314;5.710;2023-09-08T07:48:13;20.50;99.90
53844;DHT22;39744;53.314;5.710;2023-09-08T07:50:39;20.60;99.90
53844;DHT22;39744;53.314;5.710;2023-09-08T07:53:05;20.70;99.90
53844;DHT22;39744;53.314;5.710;2023-09-08T07:55:31;20.90;99.90
53844;DHT22;39744;53.314;5.710;2023-09-08T07:57:58;21.00;99.90
53844;DHT22;39744;53.314;5.710;2023-09-08T08:00:24;21.20;99.90
53844;DHT22;39744;53.314;5.710;2023-09-08T08:02:54;21.40;99.90
53844;DHT22;39744;53.314;5.710;2023-09-08T08:05:19;21.60;99.90
53844;DHT22;39744;53.314;5.710;2023-09-08T08:07:45;21.80;99.90
53844;DHT22;39744;53.314;5.710;2023-09-08T08:10:12;22.00;99.90
53844;DHT22;39744;53.314;5.710;2023-09-08T08:12:39;22.20;99.90
53844;DHT22;39744;53.314;5.710;2023-09-08T08:15:05;22.30;99.90
53844;DHT22;39744;53.314;5.710;2023-09-08T08:17:31;22.40;99.90
53844;DHT22;39744;53.314;5.710;2023-09-08T08:19:57;22.60;99.90
53844;DHT22;39744;53.314;5.710;2023-09-08T08:22:32;22.70;99.90
53844;DHT22;39744;53.314;5.710;2023-09-08T08:24:58;22.80;99.90
53844;DHT22;39744;53.314;5.710;2023-09-08T08:27:24;23.00;99.90
53844;DHT22;39744;53.314;5.710;2023-09-08T08:29:49;23.10;99.90
53844;DHT22;39744;53.314;5.710;2023-09-08T08:32:16;23.20;99.90
53844;DHT22;39744;53.314;5.710;2023-09-08T08:34:42;23.20;99.90
53844;DHT22;39744;53.314;5.710;2023-09-08T08:37:08;23.30;99.90
53844;DHT22;39744;53.314;5.710;2023-09-08T08:39:33;23.40;99.90
53844;DHT22;39744;53.314;5.710;2023-09-08T08:42:07;23.40;99.90
53844;DHT22;39744;53.314;5.710;2023-09-08T08:44:33;23.50;99.90
53844;DHT22;39744;53.314;5.710;2023-09-08T08:47:02;23.50;99.90
53844;DHT22;39744;53.314;5.710;2023-09-08T08:49:30;23.60;99.90
53844;DHT22;39744;53.314;5.710;2023-09-08T08:51:58;23.70;99.90
53844;DHT22;39744;53.314;5.710;2023-09-08T08:54:24;23.80;99.90
53844;DHT22;39744;53.314;5.710;2023-09-08T08:56:50;23.90;99.90
53844;DHT22;39744;53.314;5.710;2023-09-08T08:59:16;24.00;99.90
53844;DHT22;39744;53.314;5.710;2023-09-08T09:01:42;24.10;99.90
53844;DHT22;39744;53.314;5.710;2023-09-08T09:04:10;24.20;99.90
53844;DHT22;39744;53.314;5.710;2023-09-08T09:06:36;24.30;99.90
53844;DHT22;39744;53.314;5.710;2023-09-08T09:09:02;24.50;99.90
53844;DHT22;39744;53.314;5.710;2023-09-08T09:11:30;24.60;99.90
53844;DHT22;39744;53.314;5.710;2023-09-08T09:13:57;24.70;99.90
53844;DHT22;39744;53.314;5.710;2023-09-08T09:16:23;24.90;99.90
53844;DHT22;39744;53.314;5.710;2023-09-08T09:18:58;25.10;99.90
53844;DHT22;39744;53.314;5.710;2023-09-08T09:21:25;25.30;99.90
53844;DHT22;39744;53.314;5.710;2023-09-08T09:24:06;25.40;99.90
53844;DHT22;39744;53.314;5.710;2023-09-08T09:26:31;25.50;99.90
53844;DHT22;39744;53.314;5.710;2023-09-08T09:28:57;25.50;99.90
53844;DHT22;39744;53.314;5.710;2023-09-08T09:31:25;25.70;99.90
53844;DHT22;39744;53.314;5.710;2023-09-08T09:34:02;25.80;99.90
53844;DHT22;39744;53.314;5.710;2023-09-08T09:36:31;25.80;99.90
53844;DHT22;39744;53.314;5.710;2023-09-08T09:39:00;26.00;99.90
53844;DHT22;39744;53.314;5.710;2023-09-08T09:41:29;26.20;99.90
53844;DHT22;39744;53.314;5.710;2023-09-08T09:43:56;26.40;99.90
53844;DHT22;39744;53.314;5.710;2023-09-08T09:46:22;26.50;99.90
53844;DHT22;39744;53.314;5.710;2023-09-08T09:48:54;26.60;99.90
53844;DHT22;39744;53.314;5.710;2023-09-08T09:51:22;26.70;99.90
53844;DHT22;39744;53.314;5.710;2023-09-08T09:53:50;26.70;99.90
53844;DHT22;39744;53.314;5.710;2023-09-08T09:56:17;26.80;99.90
53844;DHT22;39744;53.314;5.710;2023-09-08T09:58:44;26.80;99.90
53844;DHT22;39744;53.314;5.710;2023-09-08T10:01:10;26.80;99.90
53844;DHT22;39744;53.314;5.710;2023-09-08T10:03:38;26.70;99.90
53844;DHT22;39744;53.314;5.710;2023-09-08T10:06:05;26.70;99.90
53844;DHT22;39744;53.314;5.710;2023-09-08T10:08:34;26.70;99.90
53844;DHT22;39744;53.314;5.710;2023-09-08T10:11:06;26.80;99.90
53844;DHT22;39744;53.314;5.710;2023-09-08T10:13:37;26.80;99.90
53844;DHT22;39744;53.314;5.710;2023-09-08T10:16:05;26.90;99.90
53844;DHT22;39744;53.314;5.710;2023-09-08T10:18:32;27.00;99.90
53844;DHT22;39744;53.314;5.710;2023-09-08T10:21:03;27.00;99.90
53844;DHT22;39744;53.314;5.710;2023-09-08T10:23:41;27.10;99.90
53844;DHT22;39744;53.314;5.710;2023-09-08T10:26:12;27.20;99.90
53844;DHT22;39744;53.314;5.710;2023-09-08T10:28:38;27.30;99.90
53844;DHT22;39744;53.314;5.710;2023-09-08T10:31:05;27.40;99.90
53844;DHT22;39744;53.314;5.710;2023-09-08T10:33:31;27.50;99.90
53844;DHT22;39744;53.314;5.710;2023-09-08T10:35:57;27.60;99.90
53844;DHT22;39744;53.314;5.710;2023-09-08T10:38:30;27.70;99.90
53844;DHT22;39744;53.314;5.710;2023-09-08T10:41:25;27.90;99.90
53844;DHT22;39744;53.314;5.710;2023-09-08T10:43:46;28.00;99.90
53844;DHT22;39744;53.314;5.710;2023-09-08T10:46:22;28.00;99.90
53844;DHT22;39744;53.314;5.710;2023-09-08T10:48:48;28.00;99.90
53844;DHT22;39744;53.314;5.710;2023-09-08T10:51:14;27.90;99.90
53844;DHT22;39744;53.314;5.710;2023-09-08T10:53:40;27.90;99.90
53844;DHT22;39744;53.314;5.710;2023-09-08T10:56:06;27.90;99.90
53844;DHT22;39744;53.314;5.710;2023-09-08T10:58:36;27.90;99.90
53844;DHT22;39744;53.314;5.710;2023-09-08T11:01:04;27.90;99.90
53844;DHT22;39744;53.314;5.710;2023-09-08T11:03:42;28.00;99.90
53844;DHT22;39744;53.314;5.710;2023-09-08T11:06:09;28.10;99.90
53844;DHT22;39744;53.314;5.710;2023-09-08T11:08:43;28.10;99.90
53844;DHT22;39744;53.314;5.710;2023-09-08T11:11:11;28.10;99.90
53844;DHT22;39744;53.314;5.710;2023-09-08T11:13:36;28.20;99.90
53844;DHT22;39744;53.314;5.710;2023-09-08T11:16:02;28.10;99.90
53844;DHT22;39744;53.314;5.710;2023-09-08T11:18:28;28.10;99.90
53844;DHT22;39744;53.314;5.710;2023-09-08T11:20:55;28.20;99.90
53844;DHT22;39744;53.314;5.710;2023-09-08T11:23:21;28.20;99.90
53844;DHT22;39744;53.314;5.710;2023-09-08T11:25:48;28.30;99.90
53844;DHT22;39744;53.314;5.710;2023-09-08T11:28:14;28.30;99.90
53844;DHT22;39744;53.314;5.710;2023-09-08T11:30:40;28.30;99.90
53844;DHT22;39744;53.314;5.710;2023-09-08T11:33:16;28.30;99.90
53844;DHT22;39744;53.314;5.710;2023-09-08T11:35:43;28.40;99.90
53844;DHT22;39744;53.314;5.710;2023-09-08T11:38:10;28.40;99.90
53844;DHT22;39744;53.314;5.710;2023-09-08T11:40:37;28.50;99.90
53844;DHT22;39744;53.314;5.710;2023-09-08T11:43:04;28.50;99.90
53844;DHT22;39744;53.314;5.710;2023-09-08T11:45:30;28.60;99.90
53844;DHT22;39744;53.314;5.710;2023-09-08T11:47:56;28.60;99.90
53844;DHT22;39744;53.314;5.710;2023-09-08T11:50:23;28.70;99.90
53844;DHT22;39744;53.314;5.710;2023-09-08T11:52:53;28.70;99.90
53844;DHT22;39744;53.314;5.710;2023-09-08T11:55:21;28.80;99.90
53844;DHT22;39744;53.314;5.710;2023-09-08T11:57:52;28.80;99.90
53844;DHT22;39744;53.314;5.710;2023-09-08T12:00:23;28.80;99.90
53844;DHT22;39744;53.314;5.710;2023-09-08T12:02:49;28.90;99.90
53844;DHT22;39744;53.314;5.710;2023-09-08T12:05:26;29.00;99.90
53844;DHT22;39744;53.314;5.710;2023-09-08T12:07:54;29.10;99.90
53844;DHT22;39744;53.314;5.710;2023-09-08T12:10:20;29.10;99.90
53844;DHT22;39744;53.314;5.710;2023-09-08T12:12:49;29.20;99.90
53844;DHT22;39744;53.314;5.710;2023-09-08T12:18:05;29.50;99.90
53844;DHT22;39744;53.314;5.710;2023-09-08T12:20:36;29.50;99.90
53844;DHT22;39744;53.314;5.710;2023-09-08T12:23:04;29.50;99.90
53844;DHT22;39744;53.314;5.710;2023-09-08T12:25:30;29.60;99.90
53844;DHT22;39744;53.314;5.710;2023-09-08T12:28:00;29.50;99.90
53844;DHT22;39744;53.314;5.710;2023-09-08T12:30:28;29.60;99.90
53844;DHT22;39744;53.314;5.710;2023-09-08T12:32:59;29.60;99.90
53844;DHT22;39744;53.314;5.710;2023-09-08T12:35:25;29.60;99.90
53844;DHT22;39744;53.314;5.710;2023-09-08T12:38:02;29.70;99.90
53844;DHT22;39744;53.314;5.710;2023-09-08T12:40:30;29.80;99.90
53844;DHT22;39744;53.314;5.710;2023-09-08T12:42:56;29.80;99.90
53844;DHT22;39744;53.314;5.710;2023-09-08T12:45:25;30.00;99.90
53844;DHT22;39744;53.314;5.710;2023-09-08T12:47:50;30.10;99.90
53844;DHT22;39744;53.314;5.710;2023-09-08T12:50:17;30.20;99.90
53844;DHT22;39744;53.314;5.710;2023-09-08T12:52:43;30.20;99.90
53844;DHT22;39744;53.314;5.710;2023-09-08T12:55:09;30.20;99.90
53844;DHT22;39744;53.314;5.710;2023-09-08T12:57:35;30.30;99.90
53844;DHT22;39744;53.314;5.710;2023-09-08T13:00:05;30.30;99.90
53844;DHT22;39744;53.314;5.710;2023-09-08T13:02:31;30.30;99.90
53844;DHT22;39744;53.314;5.710;2023-09-08T13:04:56;30.30;99.90
53844;DHT22;39744;53.314;5.710;2023-09-08T13:07:23;30.30;99.90
53844;DHT22;39744;53.314;5.710;2023-09-08T13:09:52;30.30;99.90
53844;DHT22;39744;53.314;5.710;2023-09-08T13:12:18;30.20;99.90
53844;DHT22;39744;53.314;5.710;2023-09-08T13:14:44;30.20;99.90
53844;DHT22;39744;53.314;5.710;2023-09-08T13:17:11;30.20;99.90
53844;DHT22;39744;53.314;5.710;2023-09-08T13:19:36;30.30;99.90
53844;DHT22;39744;53.314;5.710;2023-09-08T13:22:04;30.40;99.90
53844;DHT22;39744;53.314;5.710;2023-09-08T13:24:30;30.40;99.90
53844;DHT22;39744;53.314;5.710;2023-09-08T13:26:56;30.50;99.90
53844;DHT22;39744;53.314;5.710;2023-09-08T13:29:22;30.40;99.90
53844;DHT22;39744;53.314;5.710;2023-09-08T13:31:47;30.40;99.90
53844;DHT22;39744;53.314;5.710;2023-09-08T13:34:13;30.40;99.90
53844;DHT22;39744;53.314;5.710;2023-09-08T13:36:39;30.70;99.90
53844;DHT22;39744;53.314;5.710;2023-09-08T13:39:05;30.30;99.90
53844;DHT22;39744;53.314;5.710;2023-09-08T13:41:55;30.50;99.90
53844;DHT22;39744;53.314;5.710;2023-09-08T13:44:24;30.20;99.90
53844;DHT22;39744;53.314;5.710;2023-09-08T13:46:51;29.90;99.90
53844;DHT22;39744;53.314;5.710;2023-09-08T13:49:17;29.70;99.90
53844;DHT22;39744;53.314;5.710;2023-09-08T13:51:43;29.20;99.90
53844;DHT22;39744;53.314;5.710;2023-09-08T13:54:09;29.20;99.90
53844;DHT22;39744;53.314;5.710;2023-09-08T13:56:38;29.00;99.90
53844;DHT22;39744;53.314;5.710;2023-09-08T13:59:04;28.90;99.90
53844;DHT22;39744;53.314;5.710;2023-09-08T14:01:30;28.80;99.90
53844;DHT22;39744;53.314;5.710;2023-09-08T14:03:57;28.60;99.90
53844;DHT22;39744;53.314;5.710;2023-09-08T14:06:23;28.80;99.90
53844;DHT22;39744;53.314;5.710;2023-09-08T14:08:49;28.80;99.90
53844;DHT22;39744;53.314;5.710;2023-09-08T14:11:15;28.90;99.90
53844;DHT22;39744;53.314;5.710;2023-09-08T14:13:41;28.60;99.90
53844;DHT22;39744;53.314;5.710;2023-09-08T14:16:08;28.60;99.90
53844;DHT22;39744;53.314;5.710;2023-09-08T14:18:34;28.80;99.90
53844;DHT22;39744;53.314;5.710;2023-09-08T14:21:00;29.00;99.90
53844;DHT22;39744;53.314;5.710;2023-09-08T14:23:26;28.80;99.90
53844;DHT22;39744;53.314;5.710;2023-09-08T14:25:52;28.70;99.90
53844;DHT22;39744;53.314;5.710;2023-09-08T14:28:18;28.20;99.90
53844;DHT22;39744;53.314;5.710;2023-09-08T14:30:44;28.20;99.90
53844;DHT22;39744;53.314;5.710;2023-09-08T14:33:10;28.30;99.90
53844;DHT22;39744;53.314;5.710;2023-09-08T14:35:36;28.30;99.90
53844;DHT22;39744;53.314;5.710;2023-09-08T14:38:06;28.60;99.90
53844;DHT22;39744;53.314;5.710;2023-09-08T14:40:31;27.80;99.90
53844;DHT22;39744;53.314;5.710;2023-09-08T14:42:57;27.70;99.90
53844;DHT22;39744;53.314;5.710;2023-09-08T14:45:22;27.60;99.90
53844;DHT22;39744;53.314;5.710;2023-09-08T14:47:48;27.50;99.90
53844;DHT22;39744;53.314;5.710;2023-09-08T14:50:14;27.50;99.90
53844;DHT22;39744;53.314;5.710;2023-09-08T14:52:41;27.50;99.90
53844;DHT22;39744;53.314;5.710;2023-09-08T14:55:06;27.30;99.90
53844;DHT22;39744;53.314;5.710;2023-09-08T14:57:33;27.30;99.90
53844;DHT22;39744;53.314;5.710;2023-09-08T14:59:58;27.40;99.90
53844;DHT22;39744;53.314;5.710;2023-09-08T15:02:24;27.40;99.90
53844;DHT22;39744;53.314;5.710;2023-09-08T15:04:50;27.40;99.90
53844;DHT22;39744;53.314;5.710;2023-09-08T15:07:15;27.60;99.90
53844;DHT22;39744;53.314;5.710;2023-09-08T15:09:41;27.60;99.90
53844;DHT22;39744;53.314;5.710;2023-09-08T15:12:07;27.70;99.90
53844;DHT22;39744;53.314;5.710;2023-09-08T15:14:32;27.60;99.90
53844;DHT22;39744;53.314;5.710;2023-09-08T15:16:58;27.50;99.90
53844;DHT22;39744;53.314;5.710;2023-09-08T15:19:24;27.50;99.90
53844;DHT22;39744;53.314;5.710;2023-09-08T15:21:49;27.40;99.90
53844;DHT22;39744;53.314;5.710;2023-09-08T15:24:15;27.30;99.90
53844;DHT22;39744;53.314;5.710;2023-09-08T15:26:41;27.20;99.90
53844;DHT22;39744;53.314;5.710;2023-09-08T15:29:06;27.10;99.90
53844;DHT22;39744;53.314;5.710;2023-09-08T15:31:32;27.10;99.90
53844;DHT22;39744;53.314;5.710;2023-09-08T15:33:57;27.00;99.90